Time;durP1;ratioP1;P1;durP2;ratioP2;P2;SDS_P1;SDS_P2;PMS_P1;PMS_P2;Temp;Humidity;BMP_temperature;BMP_pressure;BME280_temperature;BME280_humidity;BME280_pressure;Samples;Min_cycle;Max_cycle;Signal;HPM_P1;HPM_P2
2022/07/25 00:01:36;;;;;;;6.10;2.20;;;;;20.60;97481.20;;;;111220;1247;41145;-70
2022/07/25 00:04:07;;;;;;;6.00;2.40;;;;;20.60;97490.00;;;;111258;1246;41887;-71
2022/07/25 00:06:39;;;;;;;6.00;2.10;;;;;20.50;97487.00;;;;111246;1247;41132;-72
2022/07/25 00:09:08;;;;;;;6.40;2.30;;;;;20.50;97486.00;;;;111294;1246;42280;-72
2022/07/25 00:11:38;;;;;;;5.30;2.30;;;;;20.40;97492.60;;;;111285;1247;42655;-71
2022/07/25 00:14:09;;;;;;;5.30;2.40;;;;;20.40;97488.00;;;;111242;1248;41169;-71
2022/07/25 00:16:41;;;;;;;6.80;2.30;;;;;20.40;97487.00;;;;111240;1247;41142;-71
2022/07/25 00:19:12;;;;;;;6.40;2.60;;;;;20.30;97484.80;;;;111149;1247;41152;-71
2022/07/25 00:21:44;;;;;;;5.00;2.20;;;;;20.30;97486.20;;;;111386;1246;41365;-70
2022/07/25 00:24:15;;;;;;;5.10;2.20;;;;;20.28;97486.00;;;;111261;1247;42117;-70
2022/07/25 00:26:46;;;;;;;7.80;3.10;;;;;20.20;97483.40;;;;111163;1248;42857;-71
2022/07/25 00:29:15;;;;;;;7.70;2.90;;;;;20.10;97485.80;;;;111182;1249;41145;-70
2022/07/25 00:31:46;;;;;;;6.90;2.90;;;;;20.00;97487.00;;;;111275;1247;41936;-70
2022/07/25 00:34:15;;;;;;;7.90;2.80;;;;;19.80;97487.40;;;;111193;1246;41182;-70
2022/07/25 00:36:46;;;;;;;9.90;3.20;;;;;19.76;97483.40;;;;111557;1246;41118;-70
2022/07/25 00:39:16;;;;;;;7.10;2.90;;;;;19.70;97488.00;;;;111317;1247;41137;-70
2022/07/25 00:41:46;;;;;;;7.80;2.90;;;;;19.60;97488.80;;;;111127;1247;42393;-71
2022/07/25 00:44:24;;;;;;;7.60;3.10;;;;;19.54;97489.40;;;;111225;1247;41115;-72
2022/07/25 00:46:54;;;;;;;8.00;3.00;;;;;19.48;97492.20;;;;111389;1246;41167;-71
2022/07/25 00:49:26;;;;;;;8.70;3.20;;;;;19.40;97494.60;;;;111365;1247;41134;-71
2022/07/25 00:51:55;;;;;;;7.10;2.90;;;;;19.30;97495.00;;;;111220;1247;41711;-71
2022/07/25 00:54:25;;;;;;;7.50;3.20;;;;;19.30;97492.00;;;;111242;1246;42371;-70
2022/07/25 00:56:55;;;;;;;8.80;3.30;;;;;19.10;97489.40;;;;111537;1247;40912;-71
2022/07/25 00:59:25;;;;;;;8.10;2.90;;;;;19.00;97491.00;;;;111337;1247;41636;-71
2022/07/25 01:01:55;;;;;;;7.10;2.60;;;;;19.00;97489.20;;;;110973;1249;41150;-71
2022/07/25 01:04:26;;;;;;;6.40;2.40;;;;;19.00;97488.00;;;;111368;1247;41128;-71
2022/07/25 01:06:57;;;;;;;6.40;2.50;;;;;19.00;97484.20;;;;111134;1247;41145;-71
2022/07/25 01:09:28;;;;;;;5.70;2.30;;;;;19.00;97487.00;;;;111157;1248;42132;-70
2022/07/25 01:11:58;;;;;;;4.80;2.10;;;;;19.00;97487.80;;;;111226;1247;42419;-71
2022/07/25 01:14:29;;;;;;;6.10;2.50;;;;;19.00;97490.20;;;;111338;1247;40749;-71
2022/07/25 01:16:59;;;;;;;6.10;2.30;;;;;19.00;97486.80;;;;111311;1244;41230;-71
2022/07/25 01:19:28;;;;;;;6.40;2.60;;;;;19.00;97486.60;;;;111217;1248;41812;-71
2022/07/25 01:21:58;;;;;;;7.40;2.90;;;;;18.90;97487.40;;;;111119;1248;41128;-71
2022/07/25 01:24:28;;;;;;;7.40;2.70;;;;;18.80;97487.20;;;;111062;1250;41149;-71
2022/07/25 01:26:57;;;;;;;7.50;3.20;;;;;18.80;97493.00;;;;111235;1247;42002;-71
2022/07/25 01:29:29;;;;;;;7.10;3.20;;;;;18.70;97490.20;;;;111461;1246;41188;-71
2022/07/25 01:31:59;;;;;;;7.80;3.10;;;;;18.60;97489.00;;;;111106;1247;41227;-70
2022/07/25 01:34:29;;;;;;;;;;;;;18.60;97488.60;;;;111269;1247;41148;-71
2022/07/25 01:37:00;;;;;;;7.50;2.90;;;;;18.60;97490.80;;;;111383;1244;41578;-71
2022/07/25 01:39:31;;;;;;;5.60;2.30;;;;;18.60;97490.60;;;;111224;1247;41308;-71
2022/07/25 01:42:00;;;;;;;5.90;2.60;;;;;18.60;97490.80;;;;111212;1247;41737;-72
2022/07/25 01:44:30;;;;;;;6.60;2.80;;;;;18.60;97488.40;;;;111423;1246;41193;-71
2022/07/25 01:47:00;;;;;;;4.80;2.20;;;;;18.58;97489.20;;;;111412;1247;41131;-73
2022/07/25 01:49:29;;;;;;;6.10;2.40;;;;;18.60;97490.60;;;;111216;1247;41181;-71
2022/07/25 01:52:00;;;;;;;6.00;2.40;;;;;18.56;97492.40;;;;111240;1247;41961;-70
2022/07/25 01:54:30;;;;;;;5.00;2.20;;;;;18.50;97491.20;;;;111190;1247;42081;-70
2022/07/25 01:57:01;;;;;;;5.40;2.30;;;;;18.50;97493.80;;;;111123;1248;41169;-70
2022/07/25 01:59:31;;;;;;;6.20;2.50;;;;;18.50;97494.00;;;;111081;1249;41844;-70
2022/07/25 02:02:01;;;;;;;4.80;2.20;;;;;18.50;97497.60;;;;111172;1248;41145;-71
2022/07/25 02:04:32;;;;;;;6.90;3.10;;;;;18.50;97495.40;;;;111377;1245;41247;-72
2022/07/25 02:07:02;;;;;;;;;;;;;18.48;97495.20;;;;111184;1250;41159;-71
2022/07/25 02:09:34;;;;;;;6.30;2.20;;;;;18.40;97499.20;;;;111453;1246;41807;-72
2022/07/25 02:12:06;;;;;;;5.10;2.20;;;;;18.40;97493.40;;;;111231;1247;41135;-72
2022/07/25 02:14:35;;;;;;;5.90;2.20;;;;;18.40;97497.20;;;;111508;1246;41717;-71
2022/07/25 02:17:06;;;;;;;4.70;2.20;;;;;18.38;97499.80;;;;111262;1247;42043;-71
2022/07/25 02:19:36;;;;;;;5.30;2.30;;;;;18.30;97496.20;;;;111157;1247;41597;-72
2022/07/25 02:22:07;;;;;;;5.60;2.30;;;;;18.30;97496.20;;;;111165;1247;41541;-72
2022/07/25 02:24:39;;;;;;;6.00;2.30;;;;;18.30;97496.00;;;;111191;1248;41262;-71
2022/07/25 02:27:09;;;;;;;7.00;2.90;;;;;18.30;97497.60;;;;111236;1247;41159;-71
2022/07/25 02:29:39;;;;;;;9.00;2.90;;;;;18.26;97494.60;;;;111190;1246;41151;-71
2022/07/25 02:32:09;;;;;;;6.30;2.40;;;;;18.24;97497.80;;;;111394;1247;41707;-71
2022/07/25 02:34:40;;;;;;;4.80;2.20;;;;;18.24;97500.80;;;;111160;1247;41165;-71
2022/07/25 02:37:11;;;;;;;5.70;2.40;;;;;18.30;97503.00;;;;111203;1247;41140;-71
2022/07/25 02:39:42;;;;;;;;;;;;;18.30;97510.20;;;;111179;1247;41145;-72
2022/07/25 02:42:13;;;;;;;7.10;2.90;;;;;18.30;97504.20;;;;111400;1247;41145;-71
2022/07/25 02:44:42;;;;;;;7.90;3.10;;;;;18.28;97504.80;;;;111181;1247;41172;-72
2022/07/25 02:47:12;;;;;;;7.50;3.10;;;;;18.20;97505.00;;;;111301;1246;41633;-72
2022/07/25 02:49:42;;;;;;;7.20;3.10;;;;;18.00;97504.20;;;;111298;1245;40744;-71
2022/07/25 02:52:12;;;;;;;7.00;3.20;;;;;17.96;97507.20;;;;111295;1247;41609;-71
2022/07/25 02:54:43;;;;;;;10.80;3.90;;;;;17.86;97506.20;;;;111307;1244;42497;-72
2022/07/25 02:57:16;;;;;;;7.20;3.30;;;;;17.80;97512.00;;;;111236;1247;41372;-72
2022/07/25 02:59:45;;;;;;;;;;;;;17.80;97507.80;;;;111349;1245;41157;-72
2022/07/25 03:02:16;;;;;;;7.60;2.90;;;;;17.80;97509.00;;;;111159;1247;41296;-71
2022/07/25 03:04:46;;;;;;;9.10;2.90;;;;;17.90;97509.20;;;;111220;1247;41168;-71
2022/07/25 03:07:17;;;;;;;6.40;2.50;;;;;17.92;97502.20;;;;111134;1248;41154;-71
2022/07/25 03:09:48;;;;;;;8.10;2.50;;;;;18.00;97501.40;;;;111178;1247;41603;-72
2022/07/25 03:12:19;;;;;;;6.40;2.50;;;;;18.00;97504.00;;;;111386;1247;41130;-71
2022/07/25 03:14:50;;;;;;;6.10;2.40;;;;;18.00;97504.60;;;;111259;1247;41340;-72
2022/07/25 03:17:20;;;;;;;5.10;2.30;;;;;18.08;97505.40;;;;111276;1245;41526;-71
2022/07/25 03:19:49;;;;;;;6.90;2.70;;;;;18.10;97506.60;;;;111121;1248;41646;-71
2022/07/25 03:22:20;;;;;;;6.30;2.30;;;;;18.10;97507.60;;;;111333;1247;41145;-71
2022/07/25 03:24:50;;;;;;;4.90;2.30;;;;;18.10;97511.40;;;;111181;1247;41144;-71
2022/07/25 03:27:19;;;;;;;5.50;2.40;;;;;18.10;97518.80;;;;111210;1247;41199;-72
2022/07/25 03:29:50;;;;;;;7.70;2.40;;;;;18.10;97519.20;;;;111262;1247;42159;-71
2022/07/25 03:32:22;;;;;;;5.50;2.30;;;;;18.18;97515.00;;;;111367;1246;41699;-72
2022/07/25 03:34:51;;;;;;;6.20;2.70;;;;;18.20;97516.40;;;;111248;1247;41135;-71
2022/07/25 03:37:22;;;;;;;9.20;3.40;;;;;18.24;97516.80;;;;111141;1248;41161;-71
2022/07/25 03:39:51;;;;;;;8.30;3.20;;;;;18.30;97516.80;;;;111142;1248;41391;-71
2022/07/25 03:42:22;;;;;;;8.40;3.10;;;;;18.30;97522.40;;;;111149;1248;41667;-72
2022/07/25 03:44:54;;;;;;;9.60;3.50;;;;;18.30;97526.20;;;;111308;1247;43299;-71
2022/07/25 03:47:24;;;;;;;6.50;2.80;;;;;18.36;97520.00;;;;111252;1247;41269;-72
2022/07/25 03:49:54;;;;;;;6.50;2.60;;;;;18.40;97515.80;;;;111254;1247;41146;-71
2022/07/25 03:52:23;;;;;;;6.10;2.40;;;;;18.48;97519.60;;;;111223;1247;41390;-73
2022/07/25 03:54:53;;;;;;;5.50;2.30;;;;;18.50;97518.40;;;;111274;1247;41869;-71
2022/07/25 03:57:22;;;;;;;6.40;2.40;;;;;18.60;97508.80;;;;111222;1247;41131;-71
2022/07/25 03:59:52;;;;;;;8.50;3.20;;;;;18.66;97508.40;;;;111453;1246;41138;-72
2022/07/25 04:02:21;;;;;;;8.80;3.40;;;;;18.70;97506.40;;;;111392;1247;41129;-73
2022/07/25 04:04:51;;;;;;;10.00;3.50;;;;;18.60;97505.00;;;;111407;1247;41860;-71
2022/07/25 04:07:21;;;;;;;9.40;3.10;;;;;18.60;97508.20;;;;111120;1248;41499;-72
2022/07/25 04:09:50;;;;;;;7.60;3.10;;;;;18.60;97505.60;;;;111189;1247;41138;-71
2022/07/25 04:12:22;;;;;;;6.00;2.50;;;;;18.70;97512.40;;;;111081;1250;41138;-72
2022/07/25 04:14:51;;;;;;;7.00;2.60;;;;;18.72;97512.20;;;;111449;1246;41802;-72
2022/07/25 04:17:20;;;;;;;6.30;2.70;;;;;18.84;97511.60;;;;111119;1249;42057;-72
2022/07/25 04:19:50;;;;;;;5.90;2.50;;;;;19.08;97504.60;;;;111123;1247;41164;-72
2022/07/25 04:22:19;;;;;;;5.30;2.40;;;;;19.46;97504.80;;;;111152;1247;42132;-72
2022/07/25 04:24:48;;;;;;;6.30;2.50;;;;;19.90;97495.60;;;;111178;1247;42118;-72
2022/07/25 04:27:17;;;;;;;5.30;2.40;;;;;20.40;97498.00;;;;111168;1247;41584;-72
2022/07/25 04:29:47;;;;;;;7.30;2.60;;;;;20.90;97495.40;;;;111353;1246;41790;-72
2022/07/25 04:32:18;;;;;;;9.30;3.10;;;;;21.20;97503.60;;;;111437;1247;41156;-71
2022/07/25 04:34:51;;;;;;;8.00;3.70;;;;;21.38;97492.40;;;;111312;1247;41143;-72
2022/07/25 04:37:20;;;;;;;7.80;3.50;;;;;21.80;97487.80;;;;111266;1247;41150;-72
2022/07/25 04:39:49;;;;;;;9.00;3.70;;;;;22.16;97489.60;;;;111393;1247;41148;-73
2022/07/25 04:42:19;;;;;;;8.70;3.70;;;;;22.50;97484.60;;;;111155;1246;41142;-72
2022/07/25 04:44:48;;;;;;;8.70;3.40;;;;;22.80;97485.20;;;;111467;1247;41809;-72
2022/07/25 04:47:17;;;;;;;9.00;3.40;;;;;23.10;97481.40;;;;111355;1247;42135;-72
2022/07/25 04:49:47;;;;;;;8.70;3.00;;;;;23.30;97483.60;;;;111391;1246;41597;-71
2022/07/25 04:52:16;;;;;;;7.50;2.70;;;;;23.30;97488.60;;;;111273;1247;41180;-72
2022/07/25 04:54:45;;;;;;;6.30;2.90;;;;;23.20;97495.80;;;;111194;1247;41182;-73
2022/07/25 04:57:14;;;;;;;8.90;3.40;;;;;23.34;97463.60;;;;111278;1247;42301;-72
2022/07/25 04:59:43;;;;;;;5.70;2.40;;;;;23.60;97479.60;;;;111209;1247;41379;-72
2022/07/25 05:02:12;;;;;;;6.50;2.40;;;;;23.50;97478.20;;;;111194;1247;41242;-72
2022/07/25 05:04:42;;;;;;;6.90;3.00;;;;;23.82;97460.60;;;;111299;1247;41134;-73
2022/07/25 05:07:13;;;;;;;7.70;3.00;;;;;24.74;97457.80;;;;111164;1247;41937;-73
2022/07/25 05:09:43;;;;;;;6.00;2.40;;;;;25.60;97457.40;;;;111273;1247;41143;-72
2022/07/25 05:12:12;;;;;;;10.40;3.30;;;;;26.44;97468.40;;;;111444;1247;41149;-72
2022/07/25 05:14:41;;;;;;;9.30;3.00;;;;;26.92;97454.00;;;;111397;1245;42396;-73
2022/07/25 05:17:11;;;;;;;5.70;2.50;;;;;27.50;97463.80;;;;111139;1248;41593;-73
2022/07/25 05:19:40;;;;;;;16.00;3.90;;;;;28.04;97452.80;;;;110958;1249;41186;-73
2022/07/25 05:22:09;;;;;;;7.90;3.20;;;;;28.40;97450.00;;;;111166;1247;41145;-72
2022/07/25 05:24:39;;;;;;;10.20;3.00;;;;;28.44;97447.80;;;;111282;1247;41246;-73
2022/07/25 05:27:08;;;;;;;7.50;2.80;;;;;28.50;97454.80;;;;111066;1247;41142;-71
2022/07/25 05:29:37;;;;;;;5.90;2.30;;;;;28.70;97456.20;;;;111378;1245;42390;-72
2022/07/25 05:32:06;;;;;;;6.20;2.40;;;;;29.10;97462.40;;;;110978;1250;41582;-70
2022/07/25 05:34:35;;;;;;;7.20;3.20;;;;;29.40;97460.20;;;;111200;1247;41346;-70
2022/07/25 05:37:04;;;;;;;6.50;2.60;;;;;29.40;97462.60;;;;111219;1247;41169;-72
2022/07/25 05:39:33;;;;;;;6.30;2.70;;;;;29.60;97459.60;;;;111329;1246;41180;-72
2022/07/25 05:42:02;;;;;;;5.40;2.20;;;;;29.82;97461.00;;;;111446;1245;41181;-72
2022/07/25 05:44:32;;;;;;;7.20;2.80;;;;;29.82;97484.80;;;;111149;1247;42467;-71
2022/07/25 05:47:01;;;;;;;5.60;2.40;;;;;29.28;97479.20;;;;111288;1247;41130;-71
2022/07/25 05:49:30;;;;;;;6.20;2.60;;;;;29.30;97470.60;;;;111227;1246;41177;-71
2022/07/25 05:51:59;;;;;;;7.70;2.50;;;;;28.84;97464.60;;;;111110;1248;42439;-73
2022/07/25 05:54:28;;;;;;;4.70;2.20;;;;;29.26;97469.20;;;;111328;1247;41191;-72
2022/07/25 05:56:57;;;;;;;6.00;2.60;;;;;29.50;97468.00;;;;111228;1247;42314;-72
2022/07/25 05:59:26;;;;;;;7.30;2.40;;;;;29.80;97466.20;;;;111194;1248;41198;-71
2022/07/25 06:01:56;;;;;;;6.90;2.30;;;;;30.04;97459.40;;;;111235;1246;41243;-71
2022/07/25 06:04:25;;;;;;;8.00;2.80;;;;;30.40;97458.80;;;;111190;1247;42048;-71
2022/07/25 06:06:55;;;;;;;6.00;2.50;;;;;30.30;97457.80;;;;111139;1247;41260;-71
2022/07/25 06:09:24;;;;;;;6.80;2.70;;;;;30.50;97459.00;;;;111229;1247;41407;-71
2022/07/25 06:11:53;;;;;;;4.10;2.10;;;;;30.70;97456.00;;;;111466;1247;42522;-71
2022/07/25 06:14:28;;;;;;;5.60;2.20;;;;;31.20;97457.80;;;;111218;1247;41242;-70
2022/07/25 06:16:57;;;;;;;6.80;2.60;;;;;31.82;97458.00;;;;111420;1247;41151;-72
2022/07/25 06:19:26;;;;;;;11.90;2.80;;;;;32.22;97453.60;;;;111382;1245;41933;-72
2022/07/25 06:21:55;;;;;;;6.20;2.50;;;;;32.62;97452.60;;;;111144;1248;41139;-72
2022/07/25 06:24:24;;;;;;;5.40;2.50;;;;;32.80;97457.20;;;;111453;1245;41387;-72
2022/07/25 06:26:53;;;;;;;6.80;2.40;;;;;33.10;97455.80;;;;111245;1247;41217;-72
2022/07/25 06:29:22;;;;;;;5.80;2.20;;;;;33.50;97451.20;;;;111205;1248;41155;-72
2022/07/25 06:31:51;;;;;;;7.20;2.90;;;;;33.98;97449.20;;;;111199;1248;41140;-72
2022/07/25 06:34:21;;;;;;;8.30;2.80;;;;;34.32;97442.00;;;;111359;1247;41430;-73
2022/07/25 06:36:56;;;;;;;7.50;2.90;;;;;33.42;97441.20;;;;111174;1247;41155;-71
2022/07/25 06:39:26;;;;;;;6.20;2.60;;;;;33.20;97438.80;;;;111438;1247;41121;-72
2022/07/25 06:41:58;;;;;;;7.00;2.50;;;;;33.20;97448.00;;;;111160;1247;41162;-72
2022/07/25 06:44:32;;;;;;;7.70;2.90;;;;;33.40;97444.00;;;;111177;1247;41735;-72
2022/07/25 06:47:02;;;;;;;7.00;3.00;;;;;34.10;97437.80;;;;111245;1247;41297;-71
2022/07/25 06:49:31;;;;;;;7.20;3.20;;;;;34.20;97431.00;;;;111236;1247;41133;-71
2022/07/25 06:52:00;;;;;;;6.00;2.60;;;;;34.20;97426.60;;;;111292;1247;42022;-72
2022/07/25 06:54:29;;;;;;;6.50;2.70;;;;;32.82;97435.40;;;;111316;1247;41135;-72
2022/07/25 06:56:58;;;;;;;7.10;3.00;;;;;33.06;97432.60;;;;111534;1245;41265;-71
2022/07/25 06:59:27;;;;;;;7.40;2.90;;;;;33.50;97426.40;;;;111377;1247;41268;-71
2022/07/25 07:01:56;;;;;;;8.20;3.90;;;;;33.24;97431.00;;;;111448;1247;41548;-72
2022/07/25 07:04:25;;;;;;;7.50;3.10;;;;;33.06;97430.60;;;;111302;1247;41173;-71
2022/07/25 07:06:54;;;;;;;10.00;4.00;;;;;33.10;97431.20;;;;111171;1247;41130;-71
2022/07/25 07:09:23;;;;;;;7.40;3.20;;;;;33.18;97427.00;;;;111330;1247;42321;-72
2022/07/25 07:11:52;;;;;;;8.90;4.10;;;;;33.06;97430.00;;;;111458;1246;42056;-71
2022/07/25 07:14:21;;;;;;;9.20;3.40;;;;;32.60;97429.40;;;;111184;1247;41598;-71
2022/07/25 07:16:50;;;;;;;8.40;4.10;;;;;32.20;97431.20;;;;111142;1248;41265;-71
2022/07/25 07:19:20;;;;;;;7.10;3.20;;;;;31.40;97425.80;;;;111216;1247;41143;-71
2022/07/25 07:21:50;;;;;;;7.30;3.30;;;;;30.40;97435.00;;;;111194;1247;41940;-71
2022/07/25 07:24:22;;;;;;;8.90;3.80;;;;;29.60;97445.20;;;;111232;1247;41358;-71
2022/07/25 07:26:54;;;;;;;8.70;3.50;;;;;29.50;97447.80;;;;111253;1247;41248;-71
2022/07/25 07:29:23;;;;;;;7.60;3.30;;;;;29.08;97446.80;;;;111338;1246;42472;-71
2022/07/25 07:31:52;;;;;;;7.50;3.00;;;;;29.10;97445.80;;;;111285;1247;41132;-71
2022/07/25 07:34:21;;;;;;;5.90;2.70;;;;;29.30;97446.60;;;;111214;1247;41250;-70
2022/07/25 07:36:51;;;;;;;6.40;2.90;;;;;29.50;97440.40;;;;111051;1248;41258;-70
2022/07/25 07:39:20;;;;;;;6.40;2.90;;;;;29.90;97437.40;;;;111215;1247;41549;-71
2022/07/25 07:41:49;;;;;;;6.80;3.00;;;;;30.30;97434.40;;;;111216;1248;40742;-71
2022/07/25 07:44:17;;;;;;;7.10;3.00;;;;;30.40;97431.40;;;;111001;1247;335111;-69
2022/07/25 07:46:47;;;;;;;6.90;3.50;;;;;30.48;97431.00;;;;111494;1244;41838;-72
2022/07/25 07:49:17;;;;;;;7.10;3.30;;;;;30.40;97430.40;;;;111229;1247;41503;-72
2022/07/25 07:51:46;;;;;;;7.00;2.90;;;;;30.38;97433.60;;;;111250;1247;41526;-70
2022/07/25 07:57:02;;;;;;;9.60;3.70;;;;;30.60;97439.60;;;;111167;1247;41141;-71
2022/07/25 07:59:31;;;;;;;6.90;3.00;;;;;30.46;97442.40;;;;111271;1245;41256;-69
2022/07/25 08:02:00;;;;;;;8.80;3.80;;;;;30.10;97443.80;;;;111279;1247;41190;-72
2022/07/25 08:04:29;;;;;;;8.20;3.20;;;;;29.68;97444.00;;;;111548;1246;41142;-70
2022/07/25 08:06:58;;;;;;;8.70;3.90;;;;;29.26;97446.20;;;;111361;1246;41151;-70
2022/07/25 08:09:27;;;;;;;7.50;3.10;;;;;29.32;97444.00;;;;111328;1246;41166;-71
2022/07/25 08:11:57;;;;;;;7.90;4.10;;;;;29.30;97435.60;;;;111498;1246;41169;-71
2022/07/25 08:14:25;;;;;;;9.80;2.90;;;;;29.50;97433.20;;;;111380;1247;41121;-71
2022/07/25 08:16:56;;;;;;;7.10;3.00;;;;;29.60;97429.00;;;;111203;1246;41604;-71
2022/07/25 08:19:25;;;;;;;6.70;2.90;;;;;29.94;97430.40;;;;111535;1246;41526;-71
2022/07/25 08:21:54;;;;;;;6.30;2.60;;;;;30.30;97424.00;;;;111524;1246;42426;-71
2022/07/25 08:24:23;;;;;;;7.70;3.60;;;;;30.70;97427.80;;;;111215;1247;41141;-71
2022/07/25 08:26:52;;;;;;;7.80;3.70;;;;;31.00;97426.00;;;;111150;1247;41115;-71
2022/07/25 08:29:21;;;;;;;8.30;4.10;;;;;31.10;97424.20;;;;111211;1247;41145;-70
2022/07/25 08:31:55;;;;;;;7.30;2.90;;;;;30.80;97422.00;;;;111304;1244;41269;-71
2022/07/25 08:34:24;;;;;;;6.20;2.60;;;;;30.32;97418.20;;;;111208;1247;42119;-71
2022/07/25 08:36:53;;;;;;;11.10;4.00;;;;;30.62;97418.00;;;;111444;1247;41272;-71
2022/07/25 08:39:22;;;;;;;9.20;4.10;;;;;30.70;97416.20;;;;111136;1248;41239;-70
2022/07/25 08:41:51;;;;;;;8.20;3.90;;;;;30.60;97416.00;;;;111154;1247;42359;-72
2022/07/25 08:44:20;;;;;;;8.50;3.70;;;;;30.44;97416.60;;;;111139;1247;41164;-70
2022/07/25 08:46:50;;;;;;;7.30;2.90;;;;;30.38;97418.80;;;;111104;1248;41153;-70
2022/07/25 08:49:19;;;;;;;9.20;3.00;;;;;30.34;97420.80;;;;111169;1247;41146;-71
2022/07/25 08:51:49;;;;;;;7.20;3.30;;;;;30.90;97419.60;;;;111148;1248;41142;-70
2022/07/25 08:54:19;;;;;;;7.00;2.90;;;;;31.40;97413.40;;;;110959;1249;42099;-70
2022/07/25 08:56:48;;;;;;;7.50;3.20;;;;;31.48;97415.20;;;;111268;1247;42372;-71
2022/07/25 08:59:17;;;;;;;7.70;3.40;;;;;31.90;97415.80;;;;111319;1246;41140;-71
2022/07/25 09:01:47;;;;;;;8.00;3.50;;;;;31.76;97415.40;;;;111399;1244;41450;-72
2022/07/25 09:04:16;;;;;;;6.40;2.70;;;;;32.06;97419.60;;;;111172;1247;41332;-71
2022/07/25 09:06:49;;;;;;;7.00;2.90;;;;;32.00;97414.20;;;;111150;1247;41230;-71
2022/07/25 09:09:18;;;;;;;7.90;3.20;;;;;31.96;97415.80;;;;111139;1247;41659;-71
2022/07/25 09:11:48;;;;;;;8.30;3.20;;;;;32.74;97412.40;;;;111197;1247;41134;-70
2022/07/25 09:14:17;;;;;;;7.70;3.70;;;;;33.62;97406.80;;;;111219;1247;41137;-70
2022/07/25 09:16:46;;;;;;;6.70;3.00;;;;;34.50;97397.40;;;;111382;1247;41689;-71
2022/07/25 09:19:18;;;;;;;7.40;3.20;;;;;34.80;97397.20;;;;111246;1246;41269;-71
2022/07/25 09:22:01;;;;;;;8.70;3.10;;;;;35.48;97394.20;;;;111210;1247;41141;-70
2022/07/25 09:24:31;;;;;;;6.00;2.60;;;;;35.40;97391.20;;;;111172;1248;41123;-71
2022/07/25 09:27:00;;;;;;;;;;;;;35.44;97383.60;;;;111247;1247;41353;-71
2022/07/25 09:29:31;;;;;;;8.10;3.20;;;;;36.40;97379.20;;;;111382;1245;41838;-71
2022/07/25 09:32:01;;;;;;;6.50;2.80;;;;;36.26;97382.40;;;;111364;1247;41694;-71
2022/07/25 09:34:34;;;;;;;7.60;2.60;;;;;35.60;97383.80;;;;110998;1247;41147;-71
2022/07/25 09:37:06;;;;;;;6.80;2.60;;;;;36.18;97377.40;;;;111084;1247;41161;-70
2022/07/25 09:39:44;;;;;;;4.40;1.90;;;;;36.70;97382.00;;;;111275;1245;41328;-70
2022/07/25 09:42:19;;;;;;;4.90;2.30;;;;;37.28;97383.20;;;;111311;1247;42343;-71
2022/07/25 09:44:59;;;;;;;6.40;2.40;;;;;37.98;97372.20;;;;111165;1248;41144;-70
2022/07/25 09:47:30;;;;;;;5.40;2.50;;;;;38.70;97375.20;;;;111390;1245;41155;-71
2022/07/25 09:49:59;;;;;;;6.00;2.70;;;;;39.42;97371.00;;;;111433;1244;40932;-71
2022/07/25 09:52:28;;;;;;;;;;;;;39.96;97370.40;;;;111276;1245;41131;-70
2022/07/25 09:55:01;;;;;;;5.20;2.40;;;;;40.48;97366.00;;;;111273;1247;42178;-70
2022/07/25 09:57:30;;;;;;;6.70;2.70;;;;;39.74;97370.20;;;;111264;1248;41173;-71
2022/07/25 10:00:00;;;;;;;5.70;2.20;;;;;40.12;97365.80;;;;111231;1247;41176;-71
2022/07/25 10:02:38;;;;;;;;;;;;;40.64;97364.20;;;;111217;1247;41140;-70
2022/07/25 10:05:43;;;;;;;8.90;2.60;;;;;41.22;97357.40;;;;111277;1247;42038;-70
2022/07/25 10:08:12;;;;;;;5.30;2.10;;;;;41.10;97354.20;;;;111239;1246;41147;-71
2022/07/25 10:10:41;;;;;;;;;;;;;41.20;97357.00;;;;111147;1248;41158;-71
2022/07/25 10:13:14;;;;;;;4.50;2.20;;;;;41.20;97358.40;;;;111254;1247;41157;-71
2022/07/25 10:15:44;;;;;;;5.60;2.30;;;;;41.40;97353.00;;;;111130;1247;41229;-71
2022/07/25 10:18:14;;;;;;;4.70;2.10;;;;;41.40;97351.00;;;;111148;1247;41251;-70
2022/07/25 10:20:44;;;;;;;5.30;2.20;;;;;41.30;97345.60;;;;111025;1248;41998;-71
2022/07/25 10:23:31;;;;;;;5.00;2.10;;;;;41.30;97345.40;;;;111042;1247;41481;-70
2022/07/25 10:26:03;;;;;;;6.20;2.80;;;;;40.86;97342.80;;;;111204;1247;41612;-70
2022/07/25 10:28:35;;;;;;;6.60;2.50;;;;;40.52;97344.80;;;;111363;1247;41152;-70
2022/07/25 10:31:20;;;;;;;6.20;2.30;;;;;39.88;97341.00;;;;111358;1247;42043;-71
2022/07/25 10:33:51;;;;;;;7.10;2.90;;;;;39.60;97345.40;;;;111168;1247;41244;-71
2022/07/25 10:36:22;;;;;;;5.90;2.30;;;;;38.78;97343.20;;;;111412;1247;41149;-71
2022/07/25 10:38:54;;;;;;;5.70;2.20;;;;;38.58;97341.40;;;;111353;1244;41246;-71
2022/07/25 10:41:27;;;;;;;4.80;2.10;;;;;38.90;97335.60;;;;111144;1247;41138;-72
2022/07/25 10:44:01;;;;;;;6.50;2.50;;;;;38.80;97333.20;;;;111251;1246;41326;-72
2022/07/25 10:46:33;;;;;;;5.90;2.60;;;;;38.78;97334.00;;;;111324;1247;41249;-73
2022/07/25 10:49:04;;;;;;;5.10;2.30;;;;;38.50;97336.40;;;;111099;1248;41185;-70
2022/07/25 10:51:36;;;;;;;7.00;2.40;;;;;38.40;97328.40;;;;111457;1245;41622;-72
2022/07/25 10:54:14;;;;;;;4.70;2.10;;;;;38.40;97329.20;;;;111184;1247;42165;-70
2022/07/25 10:56:52;;;;;;;5.30;2.20;;;;;38.36;97338.00;;;;111395;1245;41386;-71
2022/07/25 10:59:32;;;;;;;5.00;2.00;;;;;38.20;97337.40;;;;111403;1245;41150;-72
2022/07/25 11:02:03;;;;;;;4.30;1.90;;;;;38.40;97337.60;;;;111380;1244;42050;-72
2022/07/25 11:04:32;;;;;;;8.40;2.50;;;;;38.30;97331.20;;;;111070;1247;41974;-71
2022/07/25 11:07:08;;;;;;;5.50;2.20;;;;;37.82;97333.40;;;;111336;1244;40750;-72
2022/07/25 11:09:39;;;;;;;6.20;2.00;;;;;37.40;97327.00;;;;111270;1247;40735;-72
2022/07/25 11:12:08;;;;;;;6.00;2.30;;;;;37.66;97320.80;;;;111434;1247;41252;-71
2022/07/25 11:14:40;;;;;;;4.40;2.00;;;;;38.72;97311.80;;;;111236;1244;41667;-71
2022/07/25 11:17:13;;;;;;;4.60;1.80;;;;;39.78;97313.80;;;;111169;1247;41464;-72
2022/07/25 11:19:44;;;;;;;4.60;2.00;;;;;40.02;97305.60;;;;111200;1247;41760;-70
2022/07/25 11:22:15;;;;;;;6.80;2.30;;;;;40.00;97308.00;;;;111463;1245;41164;-71
2022/07/25 11:24:45;;;;;;;4.60;1.90;;;;;39.80;97306.20;;;;111232;1247;41158;-72
2022/07/25 11:27:26;;;;;;;8.70;2.30;;;;;39.50;97297.40;;;;111370;1245;41150;-71
2022/07/25 11:30:18;;;;;;;5.50;2.50;;;;;39.98;97294.80;;;;111265;1247;42484;-71
2022/07/25 11:32:57;;;;;;;9.60;2.20;;;;;40.92;97293.20;;;;111438;1244;41597;-72
2022/07/25 11:35:30;;;;;;;6.30;2.30;;;;;40.90;97285.00;;;;111194;1247;41185;-71
2022/07/25 11:38:01;;;;;;;5.30;2.10;;;;;41.40;97280.00;;;;111267;1244;41165;-71
2022/07/25 11:40:31;;;;;;;4.90;2.10;;;;;41.80;97280.40;;;;111243;1246;41380;-72
2022/07/25 11:43:00;;;;;;;5.10;1.80;;;;;42.02;97272.20;;;;111119;1245;41155;-71
2022/07/25 11:45:35;;;;;;;4.00;1.90;;;;;42.74;97269.80;;;;111485;1245;41162;-71
2022/07/25 11:48:09;;;;;;;4.50;1.90;;;;;43.54;97267.20;;;;111270;1246;41269;-71
2022/07/25 11:50:40;;;;;;;5.20;2.00;;;;;44.12;97266.00;;;;111284;1247;43029;-72
2022/07/25 11:53:13;;;;;;;3.80;1.90;;;;;44.88;97252.00;;;;111215;1247;41960;-72
2022/07/25 11:55:42;;;;;;;4.70;2.10;;;;;45.20;97249.00;;;;111019;1249;41136;-72
2022/07/25 11:58:12;;;;;;;8.60;2.20;;;;;45.64;97244.60;;;;111152;1247;41997;-71
2022/07/25 12:00:46;;;;;;;5.20;2.10;;;;;45.72;97245.80;;;;111163;1248;41366;-71
2022/07/25 12:03:17;;;;;;;3.40;1.70;;;;;45.80;97242.80;;;;111013;1248;41137;-71
2022/07/25 12:05:48;;;;;;;4.90;1.80;;;;;45.94;97240.80;;;;111293;1247;41200;-71
2022/07/25 12:08:21;;;;;;;4.50;2.00;;;;;46.30;97241.00;;;;111052;1248;41250;-71
2022/07/25 12:10:50;;;;;;;5.30;2.10;;;;;46.82;97233.60;;;;111333;1247;41198;-71
2022/07/25 12:13:26;;;;;;;;;;;;;46.58;97227.80;;;;111255;1247;42561;-70
2022/07/25 12:15:57;;;;;;;4.50;2.10;;;;;45.34;97232.00;;;;111264;1245;41146;-70
2022/07/25 12:18:26;;;;;;;5.50;2.20;;;;;44.78;97235.40;;;;111212;1247;41209;-71
2022/07/25 12:20:55;;;;;;;4.70;1.90;;;;;44.80;97235.00;;;;111113;1247;42112;-72
2022/07/25 12:23:23;;;;;;;4.70;2.00;;;;;44.28;97231.80;;;;111204;1247;41167;-72
2022/07/25 12:25:52;;;;;;;4.50;2.10;;;;;43.74;97228.40;;;;111319;1247;41149;-71
2022/07/25 12:28:21;;;;;;;5.00;2.40;;;;;43.88;97224.80;;;;111430;1246;41484;-71
2022/07/25 12:30:50;;;;;;;5.00;2.00;;;;;42.62;97230.60;;;;111364;1245;41583;-71